createdAt,value
2023-06-22T00:00:04.978Z,95198.00
2023-06-22T00:01:05.095Z,95202.00
2023-06-22T00:02:05.065Z,95207.00
2023-06-22T00:03:05.181Z,95202.00
2023-06-22T00:04:05.183Z,95204.00
2023-06-22T00:05:05.212Z,95204.00
2023-06-22T00:06:05.248Z,95204.00
2023-06-22T00:07:05.294Z,95202.00
2023-06-22T00:08:05.413Z,95200.00
2023-06-22T00:09:05.375Z,95198.00
2023-06-22T00:10:05.455Z,95196.00
2023-06-22T00:11:05.484Z,95196.00
2023-06-22T00:12:05.539Z,95198.00
2023-06-22T00:13:05.577Z,95198.00
2023-06-22T00:14:05.624Z,95200.00
2023-06-22T00:15:05.634Z,95200.00
2023-06-22T00:16:05.675Z,95196.00
2023-06-22T00:17:05.785Z,95192.00
2023-06-22T00:18:05.914Z,95194.00
2023-06-22T00:19:05.850Z,95198.00
2023-06-22T00:20:05.854Z,95202.00
2023-06-22T00:21:05.912Z,95204.00
2023-06-22T00:22:06.010Z,95205.00
2023-06-22T00:23:06.030Z,95207.00
2023-06-22T00:24:06.061Z,95204.00
2023-06-22T00:25:06.091Z,95202.00
2023-06-22T00:26:06.143Z,95198.00
2023-06-22T00:27:06.220Z,95184.00
2023-06-22T00:28:06.253Z,95176.00
2023-06-22T00:29:06.282Z,95164.00
2023-06-22T00:30:06.300Z,95164.00
2023-06-22T00:31:06.399Z,95176.00
2023-06-22T00:32:06.403Z,95176.00
2023-06-22T00:33:06.533Z,95176.00
2023-06-22T00:34:06.504Z,95174.00
2023-06-22T00:35:06.536Z,95180.00
2023-06-22T00:36:06.580Z,95182.00
2023-06-22T00:37:06.635Z,95188.00
2023-06-22T00:38:06.656Z,95186.00
2023-06-22T00:39:06.696Z,95182.00
2023-06-22T00:40:06.747Z,95174.00
2023-06-22T00:41:06.864Z,95164.00
2023-06-22T00:42:06.858Z,95162.00
2023-06-22T00:43:06.943Z,95162.00
2023-06-22T00:44:06.975Z,95162.00
2023-06-22T00:45:06.985Z,95160.00
2023-06-22T00:46:07.066Z,95160.00
2023-06-22T00:47:07.067Z,95160.00
2023-06-22T00:48:07.198Z,95162.00
2023-06-22T00:49:07.213Z,95160.00
2023-06-22T00:50:07.231Z,95156.00
2023-06-22T00:51:07.298Z,95152.00
2023-06-22T00:52:07.333Z,95151.00
2023-06-22T00:53:07.374Z,95151.00
2023-06-22T00:54:07.436Z,95154.00
2023-06-22T00:55:07.472Z,95152.00
2023-06-22T00:56:07.537Z,95149.00
2023-06-22T00:57:07.551Z,95145.00
2023-06-22T00:58:07.589Z,95145.00
2023-06-22T00:59:07.699Z,95145.00
2023-06-22T01:00:07.714Z,95145.00
2023-06-22T01:01:07.799Z,95143.00
2023-06-22T01:02:07.803Z,95143.00
2023-06-22T01:03:07.868Z,95137.00
2023-06-22T01:04:08.057Z,95137.00
2023-06-22T01:05:07.939Z,95137.00
2023-06-22T01:06:07.980Z,95135.00
2023-06-22T01:07:08.027Z,95135.00
2023-06-22T01:08:08.088Z,95141.00
2023-06-22T01:09:08.136Z,95139.00
2023-06-22T01:10:08.180Z,95133.00
2023-06-22T01:11:08.261Z,95135.00
2023-06-22T01:12:08.271Z,95135.00
2023-06-22T01:13:08.328Z,95135.00
2023-06-22T01:14:08.375Z,95137.00
2023-06-22T01:15:08.428Z,95137.00
2023-06-22T01:16:08.481Z,95141.00
2023-06-22T01:17:08.535Z,95145.00
2023-06-22T01:18:08.544Z,95145.00
2023-06-22T01:19:08.617Z,95147.00
2023-06-22T01:20:08.670Z,95151.00
2023-06-22T01:21:08.680Z,95143.00
2023-06-22T01:22:08.738Z,95145.00
2023-06-22T01:23:08.817Z,95145.00
2023-06-22T01:24:08.811Z,95143.00
2023-06-22T01:25:08.854Z,95143.00
2023-06-22T01:26:08.982Z,95145.00
2023-06-22T01:27:08.973Z,95147.00
2023-06-22T01:28:09.020Z,95141.00
2023-06-22T01:29:09.057Z,95139.00
2023-06-22T01:30:09.081Z,95141.00
2023-06-22T01:31:09.118Z,95137.00
2023-06-22T01:32:09.908Z,95137.00
2023-06-22T01:33:09.341Z,95137.00
2023-06-22T01:34:09.309Z,95139.00
2023-06-22T01:35:09.291Z,95141.00
2023-06-22T01:36:09.379Z,95141.00
2023-06-22T01:37:09.399Z,95137.00
2023-06-22T01:38:09.441Z,95137.00
2023-06-22T01:39:09.570Z,95135.00
2023-06-22T01:40:09.684Z,95135.00
2023-06-22T01:41:09.658Z,95137.00
2023-06-22T01:42:09.730Z,95137.00
2023-06-22T01:43:09.705Z,95141.00
2023-06-22T01:44:09.848Z,95141.00
2023-06-22T01:45:09.826Z,95139.00
2023-06-22T01:46:09.859Z,95137.00
2023-06-22T01:47:09.921Z,95135.00
2023-06-22T01:48:09.970Z,95137.00
2023-06-22T01:49:10.002Z,95139.00
2023-06-22T01:50:10.058Z,95141.00
2023-06-22T01:51:10.121Z,95137.00
2023-06-22T01:52:10.169Z,95139.00
2023-06-22T01:53:10.173Z,95141.00
2023-06-22T01:54:10.237Z,95143.00
2023-06-22T01:55:10.308Z,95143.00
2023-06-22T01:56:10.342Z,95141.00
2023-06-22T01:57:10.431Z,95139.00
2023-06-22T01:58:10.415Z,95145.00
2023-06-22T01:59:10.486Z,95141.00
2023-06-22T02:00:10.544Z,95135.00
2023-06-22T02:01:10.614Z,95141.00
2023-06-22T02:02:10.719Z,95139.00
2023-06-22T02:03:10.773Z,95137.00
2023-06-22T02:04:12.734Z,95137.00
2023-06-22T02:05:10.781Z,95135.00
2023-06-22T02:06:10.837Z,95139.00
2023-06-22T02:07:10.890Z,95137.00
2023-06-22T02:08:10.900Z,95137.00
2023-06-22T02:09:11.022Z,95135.00
2023-06-22T02:10:11.005Z,95137.00
2023-06-22T02:11:11.054Z,95141.00
2023-06-22T02:12:11.097Z,95143.00
2023-06-22T02:13:11.157Z,95145.00
2023-06-22T02:14:11.191Z,95145.00
2023-06-22T02:15:11.245Z,95143.00
2023-06-22T02:16:11.284Z,95139.00
2023-06-22T02:17:11.333Z,95141.00
2023-06-22T02:18:11.529Z,95139.00
2023-06-22T02:19:11.454Z,95139.00
2023-06-22T02:20:11.439Z,95139.00
2023-06-22T02:21:11.494Z,95137.00
2023-06-22T02:22:11.560Z,95133.00
2023-06-22T02:23:11.632Z,95139.00
2023-06-22T02:24:11.669Z,95152.00
2023-06-22T02:25:11.687Z,95158.00
2023-06-22T02:26:11.741Z,95160.00
2023-06-22T02:27:11.867Z,95160.00
2023-06-22T02:28:11.839Z,95156.00
2023-06-22T02:29:11.878Z,95158.00
2023-06-22T02:30:11.930Z,95154.00
2023-06-22T02:31:12.079Z,95152.00
2023-06-22T02:32:12.047Z,95147.00
2023-06-22T02:33:12.120Z,95149.00
2023-06-22T02:34:12.152Z,95152.00
2023-06-22T02:35:12.202Z,95156.00
2023-06-22T02:36:12.236Z,95158.00
2023-06-22T02:37:12.332Z,95154.00
2023-06-22T02:38:12.350Z,95152.00
2023-06-22T02:39:12.513Z,95151.00
2023-06-22T02:40:12.467Z,95152.00
2023-06-22T02:41:12.623Z,95151.00
2023-06-22T02:42:12.612Z,95156.00
2023-06-22T02:43:12.617Z,95154.00
2023-06-22T02:44:12.666Z,95151.00
2023-06-22T02:45:12.705Z,95152.00
2023-06-22T02:46:12.736Z,95154.00
2023-06-22T02:47:12.861Z,95154.00
2023-06-22T02:48:12.934Z,95152.00
2023-06-22T02:49:12.937Z,95152.00
2023-06-22T02:50:12.979Z,95156.00
2023-06-22T02:51:13.037Z,95158.00
2023-06-22T02:52:13.091Z,95158.00
2023-06-22T02:53:13.131Z,95156.00
2023-06-22T02:54:13.194Z,95156.00
2023-06-22T02:55:13.253Z,95158.00
2023-06-22T02:56:13.274Z,95152.00
2023-06-22T02:57:13.328Z,95156.00
2023-06-22T02:58:13.370Z,95156.00
2023-06-22T02:59:13.451Z,95154.00
2023-06-22T03:00:13.516Z,95154.00
2023-06-22T03:01:13.629Z,95156.00
2023-06-22T03:02:13.670Z,95154.00
2023-06-22T03:03:13.737Z,95158.00
2023-06-22T03:04:13.731Z,95160.00
2023-06-22T03:05:13.781Z,95152.00
2023-06-22T03:06:13.819Z,95149.00
2023-06-22T03:07:13.895Z,95145.00
2023-06-22T03:08:13.966Z,95151.00
2023-06-22T03:09:14.001Z,95152.00
2023-06-22T03:10:14.071Z,95156.00
2023-06-22T03:11:14.072Z,95147.00
2023-06-22T03:12:14.133Z,95143.00
2023-06-22T03:13:14.162Z,95149.00
2023-06-22T03:14:14.231Z,95152.00
2023-06-22T03:15:14.339Z,95156.00
2023-06-22T03:16:14.391Z,95154.00
2023-06-22T03:17:14.413Z,95151.00
2023-06-22T03:18:14.466Z,95147.00
2023-06-22T03:19:14.557Z,95135.00
2023-06-22T03:20:14.611Z,95135.00
2023-06-22T03:21:14.626Z,95143.00
2023-06-22T03:22:14.811Z,95149.00
2023-06-22T03:23:14.704Z,95151.00
2023-06-22T03:24:14.817Z,95147.00
2023-06-22T03:25:14.880Z,95145.00
2023-06-22T03:26:14.871Z,95151.00
2023-06-22T03:27:14.987Z,95152.00
2023-06-22T03:28:15.034Z,95151.00
2023-06-22T03:29:15.027Z,95149.00
2023-06-22T03:30:15.198Z,95151.00
2023-06-22T03:31:15.174Z,95151.00
2023-06-22T03:32:15.227Z,95151.00
2023-06-22T03:33:15.242Z,95151.00
2023-06-22T03:34:15.303Z,95151.00
2023-06-22T03:35:15.377Z,95145.00
2023-06-22T03:36:15.396Z,95139.00
2023-06-22T03:37:15.462Z,95143.00
2023-06-22T03:38:15.497Z,95151.00
2023-06-22T03:39:15.581Z,95152.00
2023-06-22T03:40:15.609Z,95149.00
2023-06-22T03:41:15.676Z,95152.00
2023-06-22T03:42:15.698Z,95149.00
2023-06-22T03:43:15.742Z,95154.00
2023-06-22T03:44:15.819Z,95154.00
2023-06-22T03:45:15.879Z,95154.00
2023-06-22T03:46:15.937Z,95147.00
2023-06-22T03:47:15.966Z,95143.00
2023-06-22T03:48:16.049Z,95147.00
2023-06-22T03:49:16.088Z,95151.00
2023-06-22T03:50:16.101Z,95143.00
2023-06-22T03:51:16.164Z,95147.00
2023-06-22T03:52:16.232Z,95151.00
2023-06-22T03:53:16.279Z,95152.00
2023-06-22T03:54:16.344Z,95152.00
2023-06-22T03:55:16.382Z,95152.00
2023-06-22T03:56:16.404Z,95147.00
2023-06-22T03:57:16.528Z,95141.00
2023-06-22T03:58:16.535Z,95139.00
2023-06-22T03:59:16.571Z,95141.00
2023-06-22T04:00:16.676Z,95143.00
2023-06-22T04:01:16.685Z,95141.00
2023-06-22T04:02:16.802Z,95151.00
2023-06-22T04:03:17.098Z,95156.00
2023-06-22T04:04:16.978Z,95164.00
2023-06-22T04:05:16.938Z,95164.00
2023-06-22T04:06:17.055Z,95160.00
2023-06-22T04:07:16.982Z,95147.00
2023-06-22T04:08:17.121Z,95147.00
2023-06-22T04:09:17.092Z,95145.00
2023-06-22T04:10:18.451Z,95149.00
2023-06-22T04:11:17.163Z,95154.00
2023-06-22T04:12:17.187Z,95156.00
2023-06-22T04:13:17.297Z,95152.00
2023-06-22T04:14:17.253Z,95151.00
2023-06-22T04:15:17.310Z,95151.00
2023-06-22T04:16:17.364Z,95149.00
2023-06-22T04:17:17.354Z,95151.00
2023-06-22T04:18:18.321Z,95151.00
2023-06-22T04:19:17.450Z,95152.00
2023-06-22T04:20:17.525Z,95151.00
2023-06-22T04:21:17.546Z,95145.00
2023-06-22T04:22:17.588Z,95147.00
2023-06-22T04:23:17.639Z,95141.00
2023-06-22T04:24:17.650Z,95147.00
2023-06-22T04:25:17.742Z,95141.00
2023-06-22T04:26:17.759Z,95139.00
2023-06-22T04:27:17.813Z,95137.00
2023-06-22T04:28:17.891Z,95143.00
2023-06-22T04:29:17.880Z,95141.00
2023-06-22T04:30:17.953Z,95125.00
2023-06-22T04:31:18.022Z,95121.00
2023-06-22T04:32:18.072Z,95129.00
2023-06-22T04:33:18.125Z,95135.00
2023-06-22T04:34:18.119Z,95133.00
2023-06-22T04:35:18.185Z,95131.00
2023-06-22T04:36:18.222Z,95131.00
2023-06-22T04:37:18.287Z,95129.00
2023-06-22T04:38:18.312Z,95125.00
2023-06-22T04:39:18.487Z,95117.00
2023-06-22T04:40:18.436Z,95125.00
2023-06-22T04:41:18.509Z,95131.00
2023-06-22T04:42:18.554Z,95131.00
2023-06-22T04:43:18.669Z,95127.00
2023-06-22T04:44:18.672Z,95121.00
2023-06-22T04:45:18.712Z,95113.00
2023-06-22T04:46:18.755Z,95109.00
2023-06-22T04:47:18.832Z,95127.00
2023-06-22T04:48:18.904Z,95133.00
2023-06-22T04:49:18.917Z,95127.00
2023-06-22T04:50:19.077Z,95115.00
2023-06-22T04:51:19.001Z,95115.00
2023-06-22T04:52:19.101Z,95121.00
2023-06-22T04:53:19.107Z,95125.00
2023-06-22T04:54:19.188Z,95127.00
2023-06-22T04:55:19.240Z,95131.00
2023-06-22T04:56:19.305Z,95129.00
2023-06-22T04:57:19.304Z,95129.00
2023-06-22T04:58:19.418Z,95133.00
2023-06-22T04:59:19.420Z,95133.00
2023-06-22T05:00:19.465Z,95125.00
2023-06-22T05:01:19.539Z,95115.00
2023-06-22T05:02:19.604Z,95119.00
2023-06-22T05:03:20.645Z,95129.00
2023-06-22T05:04:19.811Z,95131.00
2023-06-22T05:05:19.775Z,95125.00
2023-06-22T05:06:19.788Z,95117.00
2023-06-22T05:07:19.827Z,95109.00
2023-06-22T05:08:19.909Z,95111.00
2023-06-22T05:09:19.946Z,95119.00
2023-06-22T05:10:20.023Z,95119.00
2023-06-22T05:11:20.055Z,95113.00
2023-06-22T05:12:20.068Z,95104.00
2023-06-22T05:13:20.141Z,95096.00
2023-06-22T05:14:20.248Z,95098.00
2023-06-22T05:15:20.260Z,95107.00
2023-06-22T05:16:20.321Z,95111.00
2023-06-22T05:17:20.403Z,95107.00
2023-06-22T05:18:20.540Z,95100.00
2023-06-22T05:19:20.442Z,95092.00
2023-06-22T05:20:20.539Z,95098.00
2023-06-22T05:21:20.581Z,95102.00
2023-06-22T05:22:20.619Z,95104.00
2023-06-22T05:23:20.662Z,95100.00
2023-06-22T05:24:20.727Z,95090.00
2023-06-22T05:25:20.795Z,95076.00
2023-06-22T05:26:20.819Z,95080.00
2023-06-22T05:27:20.866Z,95086.00
2023-06-22T05:28:20.922Z,95084.00
2023-06-22T05:29:20.957Z,95082.00
2023-06-22T05:30:22.411Z,95088.00
2023-06-22T05:31:21.128Z,95094.00
2023-06-22T05:32:21.198Z,95098.00
2023-06-22T05:33:21.214Z,95104.00
2023-06-22T05:34:21.198Z,95109.00
2023-06-22T05:35:21.263Z,95107.00
2023-06-22T05:36:21.326Z,95104.00
2023-06-22T05:37:21.374Z,95104.00
2023-06-22T05:38:21.441Z,95098.00
2023-06-22T05:39:21.511Z,95092.00
2023-06-22T05:40:21.521Z,95092.00
2023-06-22T05:41:21.571Z,95096.00
2023-06-22T05:42:21.634Z,95096.00
2023-06-22T05:43:21.671Z,95096.00
2023-06-22T05:44:21.721Z,95105.00
2023-06-22T05:45:21.807Z,95109.00
2023-06-22T05:46:21.799Z,95105.00
2023-06-22T05:47:21.930Z,95109.00
2023-06-22T05:48:21.940Z,95111.00
2023-06-22T05:49:21.944Z,95109.00
2023-06-22T05:50:21.994Z,95113.00
2023-06-22T05:51:22.048Z,95115.00
2023-06-22T05:52:22.161Z,95111.00
2023-06-22T05:53:22.157Z,95107.00
2023-06-22T05:54:22.203Z,95102.00
2023-06-22T05:55:22.279Z,95100.00
2023-06-22T05:56:22.324Z,95100.00
2023-06-22T05:57:22.387Z,95100.00
2023-06-22T05:58:22.387Z,95102.00
2023-06-22T05:59:22.438Z,95100.00
2023-06-22T06:00:22.479Z,95100.00
2023-06-22T06:01:22.564Z,95096.00
2023-06-22T06:02:22.599Z,95102.00
2023-06-22T06:03:22.671Z,95102.00
2023-06-22T06:04:23.518Z,95102.00
2023-06-22T06:05:22.702Z,95094.00
2023-06-22T06:06:22.761Z,95098.00
2023-06-22T06:07:22.845Z,95105.00
2023-06-22T06:08:22.834Z,95105.00
2023-06-22T06:09:22.893Z,95094.00
2023-06-22T06:10:22.923Z,95088.00
2023-06-22T06:11:22.962Z,95086.00
2023-06-22T06:12:23.001Z,95084.00
2023-06-22T06:13:23.073Z,95088.00
2023-06-22T06:14:23.069Z,95090.00
2023-06-22T06:15:23.225Z,95090.00
2023-06-22T06:16:23.149Z,95088.00
2023-06-22T06:17:23.405Z,95090.00
2023-06-22T06:18:23.245Z,95084.00
2023-06-22T06:19:23.278Z,95080.00
2023-06-22T06:20:23.373Z,95080.00
2023-06-22T06:21:23.436Z,95080.00
2023-06-22T06:22:23.519Z,95084.00
2023-06-22T06:23:23.469Z,95090.00
2023-06-22T06:24:23.552Z,95090.00
2023-06-22T06:25:23.568Z,95090.00
2023-06-22T06:26:24.362Z,95086.00
2023-06-22T06:27:23.657Z,95082.00
2023-06-22T06:28:23.721Z,95082.00
2023-06-22T06:29:23.729Z,95080.00
2023-06-22T06:30:23.862Z,95080.00
2023-06-22T06:31:23.840Z,95082.00
2023-06-22T06:32:23.886Z,95086.00
2023-06-22T06:33:25.978Z,95088.00
2023-06-22T06:34:23.940Z,95084.00
2023-06-22T06:35:23.993Z,95080.00
2023-06-22T06:36:24.056Z,95080.00
2023-06-22T06:37:24.021Z,95076.00
2023-06-22T06:38:24.095Z,95074.00
2023-06-22T06:39:24.157Z,95072.00
2023-06-22T06:40:24.172Z,95072.00
2023-06-22T06:41:24.277Z,95070.00
2023-06-22T06:42:24.267Z,95072.00
2023-06-22T06:43:24.305Z,95074.00
2023-06-22T06:44:24.351Z,95078.00
2023-06-22T06:45:24.405Z,95076.00
2023-06-22T06:46:24.555Z,95076.00
2023-06-22T06:47:24.480Z,95070.00
2023-06-22T06:48:24.530Z,95070.00
2023-06-22T06:49:24.559Z,95078.00
2023-06-22T06:50:24.609Z,95078.00
2023-06-22T06:51:24.631Z,95078.00
2023-06-22T06:52:24.726Z,95074.00
2023-06-22T06:53:24.715Z,95074.00
2023-06-22T06:54:24.853Z,95066.00
2023-06-22T06:55:24.829Z,95066.00
2023-06-22T06:56:24.931Z,95066.00
2023-06-22T06:57:24.839Z,95070.00
2023-06-22T06:58:24.912Z,95068.00
2023-06-22T06:59:24.906Z,95064.00
2023-06-22T07:00:25.001Z,95058.00
2023-06-22T07:01:25.090Z,95058.00
2023-06-22T07:02:25.037Z,95062.00
2023-06-22T07:03:25.097Z,95068.00
2023-06-22T07:04:25.157Z,95068.00
2023-06-22T07:05:25.152Z,95068.00
2023-06-22T07:06:25.159Z,95062.00
2023-06-22T07:07:25.189Z,95053.00
2023-06-22T07:08:25.267Z,95049.00
2023-06-22T07:09:25.232Z,95057.00
2023-06-22T07:10:25.404Z,95062.00
2023-06-22T07:11:25.312Z,95066.00
2023-06-22T07:12:25.357Z,95060.00
2023-06-22T07:13:25.422Z,95051.00
2023-06-22T07:14:25.497Z,95058.00
2023-06-22T07:15:25.503Z,95060.00
2023-06-22T07:16:25.492Z,95058.00
2023-06-22T07:17:25.560Z,95060.00
2023-06-22T07:18:25.536Z,95055.00
2023-06-22T07:19:25.554Z,95055.00
2023-06-22T07:20:25.678Z,95064.00
2023-06-22T07:21:25.637Z,95066.00
2023-06-22T07:22:25.681Z,95062.00
2023-06-22T07:23:25.689Z,95064.00
2023-06-22T07:24:25.704Z,95062.00
2023-06-22T07:25:25.757Z,95062.00
2023-06-22T07:26:25.803Z,95058.00
2023-06-22T07:27:25.830Z,95055.00
2023-06-22T07:28:25.946Z,95062.00
2023-06-22T07:29:26.433Z,95064.00
2023-06-22T07:30:25.986Z,95072.00
2023-06-22T07:31:25.946Z,95074.00
2023-06-22T07:32:25.965Z,95057.00
2023-06-22T07:33:25.957Z,95051.00
2023-06-22T07:34:26.007Z,95058.00
2023-06-22T07:35:26.066Z,95058.00
2023-06-22T07:36:26.043Z,95053.00
2023-06-22T07:37:26.085Z,95060.00
2023-06-22T07:38:26.080Z,95060.00
2023-06-22T07:39:26.103Z,95062.00
2023-06-22T07:40:26.126Z,95058.00
2023-06-22T07:41:26.138Z,95047.00
2023-06-22T07:42:26.189Z,95043.00
2023-06-22T07:43:27.394Z,95043.00
2023-06-22T07:44:26.206Z,95047.00
2023-06-22T07:45:26.217Z,95049.00
2023-06-22T07:46:26.246Z,95041.00
2023-06-22T07:47:26.453Z,95037.00
2023-06-22T07:48:26.241Z,95035.00
2023-06-22T07:49:26.285Z,95029.00
2023-06-22T07:50:26.295Z,95037.00
2023-06-22T07:51:26.301Z,95033.00
2023-06-22T07:52:26.306Z,95029.00
2023-06-22T07:53:26.372Z,95025.00
2023-06-22T07:54:26.415Z,95025.00
2023-06-22T07:55:26.566Z,95023.00
2023-06-22T07:56:26.374Z,95021.00
2023-06-22T07:57:26.345Z,95023.00
2023-06-22T07:58:26.355Z,95029.00
2023-06-22T07:59:26.390Z,95027.00
2023-06-22T08:00:26.425Z,95025.00
2023-06-22T08:01:26.408Z,95027.00
2023-06-22T08:02:26.464Z,95029.00
2023-06-22T08:03:26.470Z,95029.00
2023-06-22T08:04:26.421Z,95031.00
2023-06-22T08:05:26.461Z,95027.00
2023-06-22T08:06:26.442Z,95029.00
2023-06-22T08:07:26.443Z,95031.00
2023-06-22T08:08:26.451Z,95029.00
2023-06-22T08:09:26.453Z,95018.00
2023-06-22T08:10:26.462Z,95019.00
2023-06-22T08:11:26.478Z,95021.00
2023-06-22T08:12:26.476Z,95021.00
2023-06-22T08:13:26.570Z,95019.00
2023-06-22T08:14:26.676Z,95013.00
2023-06-22T08:15:26.971Z,95011.00
2023-06-22T08:16:26.526Z,95010.00
2023-06-22T08:17:26.559Z,95010.00
2023-06-22T08:18:26.593Z,95004.00
2023-06-22T08:19:26.569Z,95006.00
2023-06-22T08:20:26.564Z,95002.00
2023-06-22T08:21:26.575Z,95000.00
2023-06-22T08:22:26.568Z,95004.00
2023-06-22T08:23:26.614Z,95002.00
2023-06-22T08:24:26.603Z,94996.00
2023-06-22T08:25:26.744Z,94996.00
2023-06-22T08:26:26.626Z,94992.00
2023-06-22T08:27:26.615Z,94992.00
2023-06-22T08:28:26.596Z,94994.00
2023-06-22T08:29:26.586Z,94994.00
2023-06-22T08:30:27.096Z,94990.00
2023-06-22T08:31:26.692Z,94990.00
2023-06-22T08:32:26.761Z,94988.00
2023-06-22T08:33:28.461Z,94986.00
2023-06-22T08:34:26.698Z,94992.00
2023-06-22T08:35:26.876Z,94992.00
2023-06-22T08:36:26.693Z,94998.00
2023-06-22T08:37:26.679Z,94992.00
2023-06-22T08:38:26.758Z,94992.00
2023-06-22T08:39:26.770Z,94992.00
2023-06-22T08:40:26.772Z,94994.00
2023-06-22T08:41:26.744Z,94992.00
2023-06-22T08:42:26.754Z,94992.00
2023-06-22T08:43:26.803Z,94990.00
2023-06-22T08:44:26.776Z,94990.00
2023-06-22T08:45:28.088Z,94986.00
2023-06-22T08:46:26.842Z,94982.00
2023-06-22T08:47:26.821Z,94984.00
2023-06-22T08:48:26.782Z,94978.00
2023-06-22T08:49:26.759Z,94976.00
2023-06-22T08:50:26.921Z,94974.00
2023-06-22T08:51:26.748Z,94972.00
2023-06-22T08:52:26.950Z,94971.00
2023-06-22T08:53:26.757Z,94969.00
2023-06-22T08:54:26.735Z,94971.00
2023-06-22T08:55:26.897Z,94971.00
2023-06-22T08:56:26.716Z,94971.00
2023-06-22T08:57:26.682Z,94969.00
2023-06-22T08:58:26.790Z,94967.00
2023-06-22T08:59:26.703Z,94967.00
2023-06-22T09:00:26.681Z,94965.00
2023-06-22T09:01:26.710Z,94963.00
2023-06-22T09:02:26.812Z,94963.00
2023-06-22T09:03:26.763Z,94961.00
2023-06-22T09:04:27.032Z,94957.00
2023-06-22T09:05:26.844Z,94955.00
2023-06-22T09:06:26.715Z,94957.00
2023-06-22T09:07:26.649Z,94955.00
2023-06-22T09:08:26.651Z,94957.00
2023-06-22T09:09:26.609Z,94955.00
2023-06-22T09:10:26.694Z,94957.00
2023-06-22T09:11:26.612Z,94957.00
2023-06-22T09:12:26.638Z,94955.00
2023-06-22T09:13:26.637Z,94953.00
2023-06-22T09:14:26.605Z,94951.00
2023-06-22T09:15:26.562Z,94951.00
2023-06-22T09:16:26.573Z,94945.00
2023-06-22T09:17:26.583Z,94947.00
2023-06-22T09:18:26.599Z,94949.00
2023-06-22T09:19:26.664Z,94949.00
2023-06-22T09:20:26.626Z,94945.00
2023-06-22T09:21:26.573Z,94945.00
2023-06-22T09:22:26.562Z,94943.00
2023-06-22T09:23:26.550Z,94945.00
2023-06-22T09:24:26.532Z,94945.00
2023-06-22T09:25:26.716Z,94943.00
2023-06-22T09:26:26.523Z,94941.00
2023-06-22T09:27:26.532Z,94939.00
2023-06-22T09:28:26.494Z,94937.00
2023-06-22T09:29:26.489Z,94937.00
2023-06-22T09:30:26.680Z,94935.00
2023-06-22T09:31:26.695Z,94931.00
2023-06-22T09:32:26.492Z,94929.00
2023-06-22T09:33:26.510Z,94929.00
2023-06-22T09:34:26.502Z,94927.00
2023-06-22T09:35:26.475Z,94927.00
2023-06-22T09:36:26.429Z,94925.00
2023-06-22T09:37:26.493Z,94923.00
2023-06-22T09:38:26.445Z,94921.00
2023-06-22T09:39:26.459Z,94921.00
2023-06-22T09:40:26.509Z,94927.00
2023-06-22T09:41:26.501Z,94927.00
2023-06-22T09:42:26.512Z,94929.00
2023-06-22T09:43:26.429Z,94927.00
2023-06-22T09:44:26.382Z,94927.00
2023-06-22T09:45:26.425Z,94925.00
2023-06-22T09:46:26.633Z,94923.00
2023-06-22T09:47:26.428Z,94921.00
2023-06-22T09:48:26.416Z,94919.00
2023-06-22T09:49:45.817Z,94908.00
2023-06-22T09:50:27.637Z,94908.00
2023-06-22T09:51:26.349Z,94910.00
2023-06-22T09:52:34.190Z,94917.00
2023-06-22T09:53:27.336Z,94910.00
2023-06-22T09:54:26.406Z,94910.00
2023-06-22T09:55:26.350Z,94908.00
2023-06-22T09:56:28.795Z,94904.00
2023-06-22T09:57:26.349Z,94902.00
2023-06-22T09:58:26.324Z,94896.00
2023-06-22T09:59:26.286Z,94896.00
2023-06-22T10:00:26.358Z,94892.00
2023-06-22T10:01:26.299Z,94890.00
2023-06-22T10:02:26.461Z,94888.00
2023-06-22T10:03:26.356Z,94888.00
2023-06-22T10:04:26.434Z,94884.00
2023-06-22T10:05:26.330Z,94882.00
2023-06-22T10:06:26.326Z,94880.00
2023-06-22T10:07:26.247Z,94877.00
2023-06-22T10:08:26.224Z,94875.00
2023-06-22T10:09:26.234Z,94873.00
2023-06-22T10:10:26.226Z,94873.00
2023-06-22T10:11:26.213Z,94871.00
2023-06-22T10:12:26.214Z,94871.00
2023-06-22T10:13:26.232Z,94871.00
2023-06-22T10:14:26.231Z,94871.00
2023-06-22T10:15:26.379Z,94869.00
2023-06-22T10:16:26.174Z,94869.00
2023-06-22T10:17:26.217Z,94867.00
2023-06-22T10:18:26.170Z,94867.00
2023-06-22T10:19:26.164Z,94867.00
2023-06-22T10:20:26.163Z,94863.00
2023-06-22T10:21:26.168Z,94861.00
2023-06-22T10:22:26.356Z,94859.00
2023-06-22T10:23:26.201Z,94857.00
2023-06-22T10:24:26.149Z,94855.00
2023-06-22T10:25:26.126Z,94851.00
2023-06-22T10:26:26.092Z,94851.00
2023-06-22T10:27:26.118Z,94851.00
2023-06-22T10:28:26.120Z,94849.00
2023-06-22T10:29:26.077Z,94847.00
2023-06-22T10:30:26.112Z,94847.00
2023-06-22T10:31:26.235Z,94845.00
2023-06-22T10:32:26.198Z,94845.00
2023-06-22T10:33:26.106Z,94847.00
2023-06-22T10:34:26.076Z,94847.00
2023-06-22T10:35:26.097Z,94851.00
2023-06-22T10:36:26.081Z,94851.00
2023-06-22T10:37:26.046Z,94849.00
2023-06-22T10:38:26.029Z,94851.00
2023-06-22T10:39:26.017Z,94849.00
2023-06-22T10:40:26.065Z,94847.00
2023-06-22T10:41:26.001Z,94849.00
2023-06-22T10:42:26.024Z,94845.00
2023-06-22T10:43:26.009Z,94845.00
2023-06-22T10:44:26.059Z,94845.00
2023-06-22T10:45:26.037Z,94845.00
2023-06-22T10:46:26.001Z,94841.00
2023-06-22T10:47:26.047Z,94843.00
2023-06-22T10:48:25.945Z,94841.00
2023-06-22T10:50:27.597Z,94832.00
2023-06-22T10:51:27.556Z,94827.00
2023-06-22T10:52:27.539Z,94825.00
2023-06-22T10:53:27.593Z,94827.00
2023-06-22T10:54:27.575Z,94825.00
2023-06-22T10:55:27.957Z,94827.00
2023-06-22T10:56:27.524Z,94827.00
2023-06-22T10:57:27.510Z,94833.00
2023-06-22T10:58:27.614Z,94833.00
2023-06-22T10:59:27.574Z,94833.00
2023-06-22T11:00:27.497Z,94835.00
2023-06-22T11:01:38.344Z,94837.00
2023-06-22T11:02:28.606Z,94837.00
2023-06-22T11:03:28.434Z,94839.00
2023-06-22T11:04:27.575Z,94837.00
2023-06-22T11:05:27.646Z,94837.00
2023-06-22T11:06:27.497Z,94837.00
2023-06-22T11:07:27.456Z,94833.00
2023-06-22T11:08:27.437Z,94832.00
2023-06-22T11:09:29.599Z,94827.00
2023-06-22T11:10:27.559Z,94830.00
2023-06-22T11:11:27.622Z,94827.00
2023-06-22T11:12:27.634Z,94827.00
2023-06-22T11:13:27.709Z,94832.00
2023-06-22T11:14:27.747Z,94824.00
2023-06-22T11:15:27.876Z,94822.00
2023-06-22T11:16:27.903Z,94816.00
2023-06-22T11:17:27.980Z,94820.00
2023-06-22T11:18:27.969Z,94816.00
2023-06-22T11:19:28.054Z,94812.00
2023-06-22T11:20:28.464Z,94804.00
2023-06-22T11:21:28.170Z,94812.00
2023-06-22T11:22:28.238Z,94812.00
2023-06-22T11:23:28.287Z,94814.00
2023-06-22T11:24:28.360Z,94816.00
2023-06-22T11:25:28.527Z,94816.00
2023-06-22T11:26:28.493Z,94814.00
2023-06-22T11:27:28.475Z,94812.00
2023-06-22T11:28:28.598Z,94812.00
2023-06-22T11:29:37.338Z,94812.00
2023-06-22T11:30:29.880Z,94814.00
2023-06-22T11:31:28.666Z,94814.00
2023-06-22T11:32:28.675Z,94812.00
2023-06-22T11:33:28.577Z,94814.00
2023-06-22T11:34:28.685Z,94814.00
2023-06-22T11:35:28.587Z,94814.00
2023-06-22T11:36:28.592Z,94808.00
2023-06-22T11:37:28.565Z,94806.00
2023-06-22T11:38:28.601Z,94802.00
2023-06-22T11:39:38.942Z,94806.00
2023-06-22T11:40:29.772Z,94802.00
2023-06-22T11:41:28.570Z,94806.00
2023-06-22T11:42:28.601Z,94802.00
2023-06-22T11:43:28.597Z,94798.00
2023-06-22T11:44:28.575Z,94794.00
2023-06-22T11:45:28.574Z,94792.00